Time;durP1;ratioP1;P1;durP2;ratioP2;P2;SDS_P1;SDS_P2;PMS_P1;PMS_P2;Temp;Humidity;BMP_temperature;BMP_pressure;BME280_temperature;BME280_humidity;BME280_pressure;Samples;Min_cycle;Max_cycle;Signal;HPM_P1;HPM_P2
2022/11/29 00:01:31;;;;;;;1.33;1.27;;;;;;;2.73;100.00;100343.53;6098060;23;20482;-89
2022/11/29 00:03:57;;;;;;;2.03;1.92;;;;;;;2.65;100.00;100329.00;6073501;23;20014;-89
2022/11/29 00:06:26;;;;;;;1.17;1.17;;;;;;;2.73;100.00;100327.09;6099099;23;20089;-89
2022/11/29 00:08:53;;;;;;;4.20;3.03;;;;;;;2.74;100.00;100328.69;6097551;23;20457;-89
2022/11/29 00:14:06;;;;;;;1.23;1.23;;;;;;;2.76;100.00;100321.66;6101089;23;20282;-89
2022/11/29 01:02:24;;;;;;;1.40;1.30;;;;;;;2.75;100.00;100309.13;6151391;23;20026;-88
2022/11/29 01:04:49;;;;;;;2.47;2.38;;;;;;;2.73;100.00;100314.19;6152527;23;20013;-88
2022/11/29 01:07:15;;;;;;;2.22;2.05;;;;;;;2.72;100.00;100309.88;6152394;23;20009;-88
2022/11/29 01:09:40;;;;;;;9.32;3.05;;;;;;;2.72;100.00;100298.13;6153705;23;20001;-88
2022/11/29 01:12:06;;;;;;;1.65;1.55;;;;;;;2.69;100.00;100299.69;6151841;23;20347;-88
2022/11/29 01:14:32;;;;;;;7.45;2.33;;;;;;;2.79;100.00;100314.66;6153487;23;20064;-88
2022/11/29 01:16:57;;;;;;;2.92;2.60;;;;;;;2.78;100.00;100308.38;6152980;23;20129;-88
2022/11/29 01:19:23;;;;;;;2.85;2.65;;;;;;;2.69;100.00;100288.72;6152850;23;20060;-88
2022/11/29 01:21:48;;;;;;;1.92;1.83;;;;;;;2.67;100.00;100304.72;6154096;23;20005;-88
2022/11/29 01:24:13;;;;;;;3.60;3.30;;;;;;;2.65;100.00;100301.59;6154140;23;20023;-88
2022/11/29 01:26:39;;;;;;;2.08;1.98;;;;;;;2.63;100.00;100306.66;6154766;23;20045;-88
2022/11/29 01:29:05;;;;;;;2.45;1.90;;;;;;;2.61;100.00;100284.34;6154425;23;20413;-88
2022/11/29 01:31:35;;;;;;;1.50;1.40;;;;;;;2.61;100.00;100306.25;6154591;23;20498;-89
2022/11/29 01:34:02;;;;;;;1.15;0.85;;;;;;;2.54;100.00;100291.72;6153809;23;20014;-88
2022/11/29 01:36:28;;;;;;;3.33;3.03;;;;;;;2.44;100.00;100295.91;6154173;23;20067;-89
2022/11/29 01:38:54;;;;;;;2.60;2.42;;;;;;;2.43;100.00;100302.53;6153814;23;20394;-88
2022/11/29 01:41:23;;;;;;;4.97;3.90;;;;;;;2.43;100.00;100301.78;6128450;23;20040;-88
2022/11/29 01:44:05;;;;;;;3.13;1.58;;;;;;;2.45;100.00;100308.44;6154463;23;20067;-88
2022/11/29 01:46:36;;;;;;;2.78;2.55;;;;;;;2.40;100.00;100299.78;6154458;23;20013;-89
2022/11/29 01:49:12;;;;;;;1.70;1.60;;;;;;;2.36;100.00;100297.00;6153956;23;20014;-88
2022/11/29 01:51:39;;;;;;;0.65;0.65;;;;;;;2.42;100.00;100301.00;6128417;23;20059;-88
2022/11/29 01:54:05;;;;;;;1.20;1.17;;;;;;;2.43;100.00;100299.81;6127549;23;20002;-88
2022/11/29 01:56:32;;;;;;;2.75;2.25;;;;;;;2.43;100.00;100299.81;6128450;23;20021;-88
2022/11/29 01:59:01;;;;;;;1.08;1.08;;;;;;;2.36;100.00;100294.25;6128133;23;20112;-88
2022/11/29 02:03:52;;;;;;;1.73;1.63;;;;;;;2.38;100.00;100300.16;6176458;23;20100;-78
2022/11/29 02:06:17;;;;;;;2.83;1.88;;;;;;;2.41;100.00;100298.63;6157976;23;20555;-79
2022/11/29 02:08:43;;;;;;;2.22;2.03;;;;;;;2.37;100.00;100293.09;6184698;23;20045;-79
2022/11/29 02:11:17;;;;;;;2.90;2.17;;;;;;;2.38;100.00;100300.16;6184218;23;20379;-79
2022/11/29 02:13:59;;;;;;;3.85;3.40;;;;;;;2.35;100.00;100300.91;6184477;23;20020;-78
2022/11/29 02:16:37;;;;;;;2.45;2.25;;;;;;;2.32;100.00;100290.69;6184180;23;20101;-79
2022/11/29 02:19:21;;;;;;;2.75;2.08;;;;;;;2.35;100.00;100292.69;6183611;23;20406;-83
2022/11/29 02:21:51;;;;;;;;;;;;;;;2.30;100.00;100290.31;6157907;23;20013;-84
2022/11/29 02:24:38;;;;;;;5.18;1.33;;;;;;;2.32;100.00;100298.91;6158378;23;20275;-84
2022/11/29 02:27:13;;;;;;;3.97;3.60;;;;;;;2.37;100.00;100298.59;6133012;23;20009;-84
2022/11/29 02:29:58;;;;;;;3.70;3.42;;;;;;;2.32;100.00;100296.19;6184067;23;20016;-83
2022/11/29 02:32:57;;;;;;;1.65;1.55;;;;;;;2.33;100.00;100295.03;6180093;23;20117;-83
2022/11/29 02:35:35;;;;;;;0.85;0.85;;;;;;;2.37;100.00;100298.59;6109252;23;20013;-83
2022/11/29 02:38:19;;;;;;;2.15;2.05;;;;;;;2.35;100.00;100298.16;6182252;23;20019;-79
2022/11/29 02:40:59;;;;;;;3.42;2.95;;;;;;;2.32;100.00;100307.91;6183002;23;20088;-78
2022/11/29 02:44:27;;;;;;;6.88;1.95;;;;;;;2.33;100.00;100308.72;6155398;23;20017;-79
2022/11/29 02:47:33;;;;;;;2.30;1.90;;;;;;;2.32;100.00;100307.13;6002031;23;20022;-79
2022/11/29 02:50:19;;;;;;;0.05;0.05;;;;;;;2.29;100.00;100313.34;6179582;23;20029;-79
2022/11/29 02:52:49;;;;;;;1.98;1.83;;;;;;;2.28;100.00;100315.31;6157359;23;20020;-79
2022/11/29 02:55:21;;;;;;;1.50;1.33;;;;;;;2.33;100.00;100325.13;6184192;23;20010;-79
2022/11/29 02:57:56;;;;;;;4.15;3.83;;;;;;;2.29;100.00;100313.34;6157358;23;20013;-83
2022/11/29 03:00:22;;;;;;;0.73;0.73;;;;;;;2.25;100.00;100315.25;6156462;23;20013;-79
2022/11/29 03:02:50;;;;;;;1.52;1.48;;;;;;;2.21;100.00;100317.19;6156434;23;20009;-79
2022/11/29 03:05:40;;;;;;;3.65;1.55;;;;;;;2.25;100.00;100318.00;6183626;23;20458;-79
2022/11/29 03:08:39;;;;;;;2.15;2.05;;;;;;;2.19;100.00;100330.44;6183518;23;20078;-78
2022/11/29 03:11:08;;;;;;;3.50;3.20;;;;;;;2.17;100.00;100327.28;6157531;23;20044;-78
2022/11/29 03:13:55;;;;;;;3.53;2.72;;;;;;;2.15;100.00;100326.88;6183264;23;20009;-78
2022/11/29 03:17:09;;;;;;;1.10;1.00;;;;;;;2.04;100.00;100325.97;6183995;23;20343;-78
2022/11/29 03:19:59;;;;;;;6.65;1.30;;;;;;;2.13;100.00;100331.94;6093113;23;20079;-83
2022/11/29 03:22:25;;;;;;;3.53;2.58;;;;;;;2.04;100.00;100325.97;6183734;23;20017;-83
2022/11/29 03:25:02;;;;;;;1.45;1.35;;;;;;;1.95;100.00;100331.72;6183299;23;20004;-83
2022/11/29 03:27:42;;;;;;;3.15;2.95;;;;;;;1.97;100.00;100334.09;6157483;23;20017;-84
2022/11/29 03:30:11;;;;;;;1.95;1.85;;;;;;;1.91;100.00;100332.81;6157425;23;20379;-83
2022/11/29 03:32:59;;;;;;;2.08;1.95;;;;;;;1.90;100.00;100339.47;6183444;23;20014;-83
2022/11/29 03:35:40;;;;;;;3.00;2.72;;;;;;;1.84;100.00;100342.53;6164640;23;20462;-82
2022/11/29 03:38:29;;;;;;;3.40;3.17;;;;;;;1.83;100.00;100340.94;6183395;23;20017;-82
2022/11/29 03:41:16;;;;;;;3.85;3.05;;;;;;;1.81;100.00;100337.81;6157382;23;20012;-82
2022/11/29 03:43:46;;;;;;;2.65;2.47;;;;;;;1.80;100.00;100346.38;6183545;23;20009;-82
2022/11/29 03:46:17;;;;;;;5.65;2.20;;;;;;;1.77;100.00;100345.16;6183462;23;20013;-82
2022/11/29 03:48:46;;;;;;;1.25;1.20;;;;;;;1.76;100.00;100346.31;6183022;23;20013;-82
2022/11/29 03:51:15;;;;;;;3.78;3.13;;;;;;;1.80;100.00;100336.22;6155657;23;20079;-82
2022/11/29 03:53:54;;;;;;;0.68;0.68;;;;;;;1.76;100.00;100351.00;6156204;23;20013;-82
2022/11/29 03:56:31;;;;;;;3.90;1.85;;;;;;;1.76;100.00;100351.78;6155786;23;20017;-82
2022/11/29 03:59:03;;;;;;;2.70;2.50;;;;;;;1.71;100.00;100348.59;6129831;23;20351;-82
2022/11/29 04:02:25;;;;;;;2.08;1.98;;;;;;;1.66;100.00;100357.88;6182034;23;20067;-82
2022/11/29 04:05:09;;;;;;;4.15;3.15;;;;;;;1.66;100.00;100357.88;6061752;23;20150;-82
2022/11/29 04:07:51;;;;;;;8.27;2.90;;;;;;;1.58;100.00;100350.75;6063304;23;20019;-82
2022/11/29 04:10:33;;;;;;;7.07;3.00;;;;;;;1.61;100.00;100355.50;6135313;23;20099;-82
2022/11/29 04:12:58;;;;;;;3.00;1.50;;;;;;;1.61;100.00;100358.22;6155338;23;20009;-82
2022/11/29 04:15:48;;;;;;;2.17;2.08;;;;;;;1.62;100.00;100359.03;6183274;23;20094;-77
2022/11/29 04:18:14;;;;;;;2.40;2.30;;;;;;;1.63;100.00;100342.22;6182842;23;20012;-82
2022/11/29 04:20:53;;;;;;;5.30;2.00;;;;;;;1.61;100.00;100358.22;6182719;23;20016;-82
2022/11/29 04:23:52;;;;;;;3.17;2.65;;;;;;;1.60;100.00;100364.06;6132309;23;20017;-82
2022/11/29 04:27:14;;;;;;;3.85;2.15;;;;;;;1.61;100.00;100360.97;6183259;23;20087;-82
2022/11/29 04:29:48;;;;;;;2.78;1.95;;;;;;;1.64;100.00;100371.16;6062560;23;20047;-82
2022/11/29 04:32:45;;;;;;;7.05;3.10;;;;;;;1.61;100.00;100354.69;6062884;23;20022;-82
2022/11/29 04:35:18;;;;;;;1.40;1.30;;;;;;;1.62;100.00;100350.81;6151021;23;20024;-82
2022/11/29 04:37:57;;;;;;;4.15;3.85;;;;;;;1.61;100.00;100369.16;6156337;23;20013;-82
2022/11/29 04:40:35;;;;;;;3.95;1.42;;;;;;;1.61;100.00;100369.16;6156906;23;20028;-82
2022/11/29 04:43:19;;;;;;;2.30;2.20;;;;;;;1.60;100.00;100378.53;6182382;23;20058;-82
2022/11/29 04:45:47;;;;;;;3.15;2.10;;;;;;;1.63;100.00;100380.50;6156924;23;20103;-82
2022/11/29 04:48:37;;;;;;;1.00;1.00;;;;;;;1.62;100.00;100378.94;6182545;23;20439;-82
2022/11/29 04:51:11;;;;;;;1.27;1.15;;;;;;;1.66;100.00;100374.28;6156221;23;20064;-82
2022/11/29 04:53:50;;;;;;;1.10;1.10;;;;;;;1.60;100.00;100375.00;6156506;23;20104;-77
2022/11/29 04:56:37;;;;;;;2.38;2.13;;;;;;;1.67;100.00;100381.34;6156582;23;20041;-77
2022/11/29 04:59:14;;;;;;;4.97;3.03;;;;;;;1.66;100.00;100389.94;6182886;23;20028;-77
2022/11/29 05:02:06;;;;;;;0.55;0.55;;;;;;;1.71;100.00;100390.41;6181548;23;20541;-76
2022/11/29 05:04:49;;;;;;;2.38;1.30;;;;;;;1.76;100.00;100392.81;6156631;23;20017;-77
2022/11/29 05:07:24;;;;;;;2.70;2.60;;;;;;;1.75;100.00;100393.97;6156223;23;20143;-77
2022/11/29 05:10:17;;;;;;;0.85;0.73;;;;;;;1.74;100.00;100400.59;6156593;23;20012;-77
2022/11/29 05:13:09;;;;;;;2.08;1.95;;;;;;;1.75;100.00;100399.44;6156741;23;20017;-77
2022/11/29 05:15:49;;;;;;;1.33;1.25;;;;;;;1.76;100.00;100405.69;6156835;23;20020;-77
2022/11/29 05:18:26;;;;;;;0.63;0.63;;;;;;;1.74;100.00;100405.28;6182199;23;20017;-77
2022/11/29 05:21:05;;;;;;;0.90;0.90;;;;;;;1.76;100.00;100405.69;6156306;23;20432;-77
2022/11/29 05:24:01;;;;;;;1.05;0.85;;;;;;;1.81;100.00;100406.19;6155805;23;20017;-77
2022/11/29 05:26:42;;;;;;;2.47;1.92;;;;;;;1.77;100.00;100402.59;6182335;23;20494;-77
2022/11/29 05:30:07;;;;;;;4.10;2.05;;;;;;;1.82;100.00;100407.75;6154600;23;20068;-77
2022/11/29 05:33:03;;;;;;;1.55;1.20;;;;;;;1.85;100.00;100407.03;6103479;23;20091;-83
2022/11/29 05:35:47;;;;;;;2.17;2.08;;;;;;;1.87;100.00;100415.63;6179558;23;20112;-82
2022/11/29 05:38:22;;;;;;;4.10;2.50;;;;;;;1.87;100.00;100412.91;6181400;23;20447;-82
2022/11/29 05:41:25;;;;;;;2.13;1.83;;;;;;;1.86;100.00;100407.81;6183107;23;20469;-82
2022/11/29 05:44:03;;;;;;;1.52;1.42;;;;;;;1.86;100.00;100405.84;6182125;23;20016;-83
2022/11/29 05:46:35;;;;;;;0.60;0.60;;;;;;;1.86;100.00;100416.03;6158223;23;20019;-83
2022/11/29 05:49:23;;;;;;;1.85;1.55;;;;;;;1.81;100.00;100422.59;6157987;23;20044;-78
2022/11/29 05:51:57;;;;;;;0.80;0.57;;;;;;;1.89;100.00;100420.75;6158206;23;20019;-82
2022/11/29 05:54:28;;;;;;;1.85;1.70;;;;;;;1.86;100.00;100422.25;6183054;23;20043;-82
2022/11/29 05:57:09;;;;;;;1.90;1.55;;;;;;;1.84;100.00;100419.13;6184802;23;20060;-83
2022/11/29 05:59:36;;;;;;;0.85;0.85;;;;;;;1.84;100.00;100424.59;6158097;23;20510;-83
2022/11/29 06:02:08;;;;;;;2.28;2.08;;;;;;;1.84;100.00;100429.25;6132372;23;20017;-83
2022/11/29 06:04:56;;;;;;;0.75;0.75;;;;;;;1.84;100.00;100429.25;6181720;23;20016;-82
2022/11/29 06:07:26;;;;;;;4.25;3.95;;;;;;;1.85;100.00;100430.84;6183158;23;20036;-82
2022/11/29 06:10:16;;;;;;;1.58;1.25;;;;;;;1.91;100.00;100432.09;6156826;23;20020;-78
2022/11/29 06:13:07;;;;;;;1.58;1.13;;;;;;;1.88;100.00;100428.16;6131908;23;20024;-83
2022/11/29 06:15:47;;;;;;;0.82;0.82;;;;;;;1.98;100.00;100423.22;6156284;23;20017;-83
2022/11/29 06:18:24;;;;;;;2.58;2.38;;;;;;;1.94;100.00;100434.13;6132291;23;20024;-83
2022/11/29 06:20:57;;;;;;;2.05;1.75;;;;;;;1.96;100.00;100431.00;6182220;23;20059;-83
2022/11/29 06:23:28;;;;;;;12.93;2.95;;;;;;;1.94;100.00;100433.31;6182995;23;20431;-83
2022/11/29 06:26:17;;;;;;;1.55;1.45;;;;;;;1.95;100.00;100426.66;6183220;23;20458;-83
2022/11/29 06:28:54;;;;;;;1.20;1.17;;;;;;;1.96;100.00;100436.47;6153089;23;20013;-78
2022/11/29 06:31:52;;;;;;;0.65;0.65;;;;;;;1.94;100.00;100445.06;6181358;23;20030;-79
2022/11/29 06:34:47;;;;;;;4.80;2.15;;;;;;;1.89;100.00;100442.63;6177691;23;20347;-78
2022/11/29 06:37:18;;;;;;;1.88;1.75;;;;;;;1.93;100.00;100443.47;6156875;23;20017;-78
2022/11/29 06:39:43;;;;;;;7.00;4.03;;;;;;;1.96;100.00;100442.72;6183946;23;20079;-78
2022/11/29 06:42:09;;;;;;;0.77;0.75;;;;;;;1.97;100.00;100432.56;6183223;23;20533;-79
2022/11/29 06:44:34;;;;;;;1.73;1.63;;;;;;;1.95;100.00;100429.41;6183326;23;20008;-79
2022/11/29 06:47:09;;;;;;;4.80;2.65;;;;;;;1.96;100.00;100445.47;6181676;23;20001;-84
2022/11/29 06:49:45;;;;;;;3.17;2.97;;;;;;;1.91;100.00;100437.56;6155191;23;20009;-79
2022/11/29 06:52:48;;;;;;;3.45;3.15;;;;;;;1.91;100.00;100444.97;6178734;23;20024;-79
2022/11/29 06:55:19;;;;;;;5.50;2.05;;;;;;;1.94;100.00;100447.00;6096361;23;20443;-78
2022/11/29 06:57:54;;;;;;;3.72;2.30;;;;;;;1.96;100.00;100450.94;6156805;23;20020;-78
2022/11/29 07:00:22;;;;;;;1.98;1.63;;;;;;;1.92;100.00;100457.50;6156203;23;20021;-78
2022/11/29 07:03:17;;;;;;;3.47;2.10;;;;;;;1.92;100.00;100458.31;6153059;23;20013;-78
2022/11/29 07:05:45;;;;;;;1.50;1.45;;;;;;;1.82;100.00;100454.25;6180695;23;20063;-78
2022/11/29 07:08:18;;;;;;;3.80;2.38;;;;;;;1.90;100.00;100459.84;6179904;23;20014;-84
2022/11/29 07:10:48;;;;;;;;;;;;;;;1.90;100.00;100459.84;6179888;23;20078;-83
2022/11/29 07:13:15;;;;;;;3.13;1.15;;;;;;;1.90;100.00;100459.84;6179954;23;19923;-82
2022/11/29 07:15:45;;;;;;;3.92;1.92;;;;;;;1.86;100.00;100455.09;6180919;23;20017;-85
2022/11/29 07:18:13;;;;;;;0.93;0.93;;;;;;;1.90;100.00;100465.31;6183485;23;20020;-85
2022/11/29 07:20:57;;;;;;;5.07;3.63;;;;;;;1.91;100.00;100472.34;6157720;23;20025;-85
2022/11/29 07:23:29;;;;;;;;;;;;;;;1.94;100.00;100466.16;6184221;23;20013;-86
2022/11/29 07:26:04;;;;;;;0.73;0.73;;;;;;;1.95;100.00;100462.25;6157480;23;19912;-83
2022/11/29 07:29:09;;;;;;;0.88;0.88;;;;;;;1.95;100.00;100454.03;6156165;23;20474;-83
2022/11/29 07:31:39;;;;;;;2.13;1.92;;;;;;;2.03;100.00;100469.38;6182448;23;20013;-83
2022/11/29 07:34:14;;;;;;;2.53;2.33;;;;;;;2.10;100.00;100461.31;6156725;23;20040;-83
2022/11/29 07:37:08;;;;;;;1.52;1.42;;;;;;;2.13;100.00;100463.28;6183558;23;20017;-82
2022/11/29 07:39:55;;;;;;;2.67;2.50;;;;;;;2.15;100.00;100463.69;6157231;23;20008;-82
2022/11/29 07:42:36;;;;;;;8.25;3.75;;;;;;;2.12;100.00;100467.97;6157135;23;20013;-83
2022/11/29 07:45:36;;;;;;;1.17;1.05;;;;;;;2.20;100.00;100468.84;6157285;23;20088;-82
2022/11/29 07:48:02;;;;;;;4.13;2.08;;;;;;;2.29;100.00;100472.13;6095168;23;20017;-82
2022/11/29 07:50:28;;;;;;;3.60;3.40;;;;;;;2.26;100.00;100467.41;6157207;23;20085;-82
2022/11/29 07:52:54;;;;;;;1.98;1.85;;;;;;;2.39;100.00;100487.88;6157185;23;20032;-83
2022/11/29 07:55:22;;;;;;;0.80;0.80;;;;;;;2.41;100.00;100491.06;6156272;23;20021;-83
2022/11/29 07:57:48;;;;;;;3.65;1.80;;;;;;;2.39;100.00;100482.41;6157224;23;20101;-82
2022/11/29 08:00:15;;;;;;;4.93;1.35;;;;;;;2.39;100.00;100490.63;6182089;23;20053;-83
2022/11/29 08:02:41;;;;;;;1.58;1.38;;;;;;;2.41;100.00;100485.56;6183488;23;20020;-83
2022/11/29 08:05:07;;;;;;;1.58;1.48;;;;;;;2.44;100.00;100489.50;6183141;23;20080;-82
2022/11/29 08:07:34;;;;;;;5.18;3.38;;;;;;;2.44;100.00;100490.31;6183120;23;20343;-82
2022/11/29 08:10:00;;;;;;;3.63;1.65;;;;;;;2.43;100.00;100494.19;6156721;23;20099;-84
2022/11/29 08:12:25;;;;;;;4.43;2.45;;;;;;;2.44;100.00;100493.03;6183292;23;20029;-83
2022/11/29 08:14:51;;;;;;;1.50;1.35;;;;;;;2.44;100.00;100486.78;6182824;23;20075;-83
2022/11/29 08:17:17;;;;;;;1.77;1.67;;;;;;;2.41;100.00;100491.06;6183094;23;20013;-83
2022/11/29 08:19:43;;;;;;;1.65;1.17;;;;;;;2.38;100.00;100496.50;6183086;23;20009;-84
2022/11/29 08:22:08;;;;;;;3.13;2.88;;;;;;;2.47;100.00;100488.78;6157018;23;20021;-83
2022/11/29 08:24:34;;;;;;;1.48;1.25;;;;;;;2.43;100.00;100488.72;6182914;23;20016;-77
2022/11/29 08:26:59;;;;;;;0.80;0.80;;;;;;;2.36;100.00;100483.16;6183226;23;20009;-78
2022/11/29 08:29:25;;;;;;;1.45;1.38;;;;;;;2.37;100.00;100482.00;6182850;23;20363;-77
2022/11/29 08:31:52;;;;;;;2.53;2.30;;;;;;;2.45;100.00;100480.16;6183197;23;20419;-78
2022/11/29 08:34:21;;;;;;;0.85;0.85;;;;;;;2.39;100.00;100465.22;6156367;23;20040;-78
2022/11/29 08:36:47;;;;;;;2.38;2.20;;;;;;;2.37;100.00;100468.31;6157039;23;20005;-78
2022/11/29 08:39:13;;;;;;;0.98;0.98;;;;;;;2.39;100.00;100478.91;6156120;23;20458;-78
2022/11/29 08:41:38;;;;;;;1.02;1.02;;;;;;;2.33;100.00;100467.47;6182808;23;20013;-84
2022/11/29 08:44:04;;;;;;;0.30;0.30;;;;;;;2.42;100.00;100465.25;6182840;23;20451;-84
2022/11/29 08:49:14;;;;;;;1.45;1.35;;;;;;;2.46;100.00;100474.31;6135552;23;20103;-84
2022/11/29 08:51:40;;;;;;;1.35;1.25;;;;;;;2.55;100.00;100469.31;6182843;23;20443;-84
2022/11/29 08:54:05;;;;;;;2.58;2.30;;;;;;;2.61;100.00;100467.84;6183077;23;20544;-84
2022/11/29 08:56:31;;;;;;;0.65;0.65;;;;;;;2.54;100.00;100462.28;6156943;23;20009;-83
2022/11/29 08:58:56;;;;;;;1.75;1.63;;;;;;;2.64;100.00;100464.34;6182895;23;20084;-83
2022/11/29 09:01:22;;;;;;;1.02;0.88;;;;;;;2.70;100.00;100456.59;6183035;23;20530;-83
2022/11/29 09:04:01;;;;;;;4.15;2.30;;;;;;;2.83;100.00;100455.19;6182630;23;20099;-82
2022/11/29 09:06:30;;;;;;;1.75;1.65;;;;;;;2.90;100.00;100451.72;6183002;23;20352;-83
2022/11/29 09:08:57;;;;;;;0.70;0.70;;;;;;;2.83;100.00;100457.94;6156824;23;20412;-83
2022/11/29 09:11:24;;;;;;;4.75;2.78;;;;;;;2.89;100.00;100455.63;6183002;23;20451;-84
2022/11/29 09:13:51;;;;;;;1.60;1.50;;;;;;;2.83;100.00;100453.22;6183478;23;20015;-81
2022/11/29 09:16:19;;;;;;;1.60;1.50;;;;;;;2.88;100.00;100454.03;6184590;23;20020;-80
2022/11/29 09:18:45;;;;;;;0.47;0.47;;;;;;;2.81;100.00;100439.13;6184826;23;20019;-77
2022/11/29 09:21:12;;;;;;;2.47;2.28;;;;;;;2.87;100.00;100455.22;6184799;23;20088;-81
2022/11/29 09:23:39;;;;;;;1.33;1.23;;;;;;;2.82;100.00;100445.38;6184634;23;20012;-80
2022/11/29 09:26:06;;;;;;;7.15;2.55;;;;;;;2.88;100.00;100445.81;6184675;23;20009;-80
2022/11/29 09:28:32;;;;;;;2.55;2.35;;;;;;;2.94;100.00;100452.56;6157747;23;20017;-80
2022/11/29 09:31:05;;;;;;;2.05;0.82;;;;;;;2.97;100.00;100446.31;6158424;23;20095;-80
2022/11/29 09:33:31;;;;;;;1.60;1.48;;;;;;;3.02;100.00;100454.22;6184084;23;20461;-80
2022/11/29 09:35:57;;;;;;;0.88;0.88;;;;;;;3.21;100.00;100462.22;6184618;23;20016;-80
2022/11/29 09:38:23;;;;;;;1.55;1.45;;;;;;;3.24;100.00;100461.47;6184120;23;20015;-80
2022/11/29 09:40:56;;;;;;;2.20;1.77;;;;;;;3.16;100.00;100459.81;6184825;23;20033;-76
2022/11/29 09:43:25;;;;;;;;;;;;;;;3.21;100.00;100462.22;6157832;23;20059;-76
2022/11/29 09:46:20;;;;;;;2.35;2.22;;;;;;;3.31;100.00;100463.50;6184774;23;19912;-76
2022/11/29 09:49:06;;;;;;;1.13;1.08;;;;;;;3.22;100.00;100455.59;6158741;23;20074;-76
2022/11/29 09:51:49;;;;;;;0.45;0.45;;;;;;;3.32;100.00;100462.34;6158309;23;20081;-76
2022/11/29 09:54:23;;;;;;;0.65;0.65;;;;;;;3.40;100.00;100453.78;6183331;23;20387;-76
2022/11/29 09:56:50;;;;;;;0.52;0.52;;;;;;;3.48;100.00;100466.38;6182883;23;20435;-80
2022/11/29 09:59:22;;;;;;;2.72;1.23;;;;;;;3.50;100.00;100464.06;6181302;23;20013;-80
2022/11/29 10:01:56;;;;;;;2.45;2.25;;;;;;;3.50;100.00;100466.81;6156470;23;20020;-80
2022/11/29 10:04:26;;;;;;;2.95;1.95;;;;;;;3.52;100.00;100466.44;6155420;23;20524;-80
2022/11/29 10:07:27;;;;;;;7.53;2.97;;;;;;;3.61;100.00;100453.97;6155951;23;20107;-80
2022/11/29 10:09:56;;;;;;;1.58;1.48;;;;;;;3.68;100.00;100458.75;6156541;23;20016;-80
2022/11/29 10:12:33;;;;;;;1.75;1.65;;;;;;;3.73;100.00;100453.66;6157259;23;20009;-80
2022/11/29 10:15:19;;;;;;;3.00;1.65;;;;;;;3.87;100.00;100460.44;6157870;23;20016;-80
2022/11/29 10:18:05;;;;;;;11.57;1.33;;;;;;;3.97;100.00;100456.97;6158138;23;20024;-80
2022/11/29 10:20:33;;;;;;;2.72;1.80;;;;;;;3.83;100.00;100449.44;6183617;23;20013;-80
2022/11/29 10:23:56;;;;;;;5.18;2.67;;;;;;;3.78;100.00;100446.25;6158216;23;20005;-80
2022/11/29 10:26:23;;;;;;;0.30;0.30;;;;;;;3.85;100.00;100446.28;6063773;23;20457;-80
2022/11/29 10:28:54;;;;;;;2.17;1.70;;;;;;;3.78;100.00;100447.03;6063706;23;20480;-80
2022/11/29 10:31:34;;;;;;;1.40;1.30;;;;;;;3.82;100.00;100452.56;6099583;23;20036;-80
2022/11/29 10:34:03;;;;;;;4.85;1.35;;;;;;;3.70;100.00;100443.47;6184023;23;20019;-80
2022/11/29 10:36:33;;;;;;;3.72;0.63;;;;;;;3.70;100.00;100445.41;6132887;23;20013;-80
2022/11/29 10:39:04;;;;;;;1.45;1.35;;;;;;;3.75;100.00;100434.88;6157996;23;20351;-80
2022/11/29 10:41:29;;;;;;;2.67;1.52;;;;;;;3.90;100.00;100437.72;6183490;23;20013;-80
2022/11/29 10:43:56;;;;;;;0.98;0.98;;;;;;;3.78;100.00;100440.75;6157601;23;20020;-80
2022/11/29 10:46:34;;;;;;;1.05;0.95;;;;;;;3.86;100.00;100417.69;6157743;23;20055;-80
2022/11/29 10:49:02;;;;;;;1.25;1.23;;;;;;;3.96;100.00;100437.00;6157740;23;20021;-80
2022/11/29 10:51:28;;;;;;;2.45;2.33;;;;;;;3.95;100.00;100431.88;6183826;23;20080;-80
2022/11/29 10:53:54;;;;;;;1.67;1.58;;;;;;;3.95;100.00;100429.13;6157564;23;20027;-80
2022/11/29 10:56:33;;;;;;;3.13;1.65;;;;;;;4.04;100.00;100432.31;6183440;23;20013;-76
2022/11/29 10:59:06;;;;;;;3.28;2.65;;;;;;;4.03;100.00;100436.22;6183873;23;20043;-77
2022/11/29 11:01:40;;;;;;;;;;;;;;;4.11;100.00;100437.84;6158449;23;20089;-76
2022/11/29 11:04:08;;;;;;;0.52;0.47;;;;;;;4.16;100.00;100440.25;6157367;23;19912;-77
2022/11/29 11:06:54;;;;;;;1.95;1.83;;;;;;;4.12;100.00;100433.94;6157947;23;20013;-76
2022/11/29 11:09:25;;;;;;;1.00;1.00;;;;;;;4.03;100.00;100441.72;6183315;23;20013;-76
2022/11/29 11:11:54;;;;;;;1.15;0.85;;;;;;;4.02;100.00;100442.88;6157147;23;20016;-77
2022/11/29 11:14:23;;;;;;;6.03;3.40;;;;;;;3.91;100.00;100436.56;6156756;23;20024;-80
2022/11/29 11:16:49;;;;;;;3.55;3.25;;;;;;;3.93;100.00;100437.72;6183747;23;20013;-80
2022/11/29 11:19:26;;;;;;;2.00;1.73;;;;;;;3.92;100.00;100440.88;6157495;23;20016;-80
2022/11/29 11:21:56;;;;;;;6.95;3.03;;;;;;;3.87;100.00;100422.03;6158240;23;20009;-80
2022/11/29 11:24:24;;;;;;;4.50;2.17;;;;;;;3.92;100.00;100427.16;6157160;23;20017;-80
2022/11/29 11:26:50;;;;;;;2.45;2.25;;;;;;;3.99;100.00;100424.44;6159226;23;20013;-81
2022/11/29 11:29:22;;;;;;;1.40;1.33;;;;;;;3.89;100.00;100427.91;6183215;23;20076;-81
2022/11/29 11:31:55;;;;;;;2.25;2.05;;;;;;;3.88;100.00;100434.56;6157340;23;20071;-78
2022/11/29 11:34:26;;;;;;;0.80;0.80;;;;;;;3.95;100.00;100434.63;6157033;23;20403;-77
2022/11/29 11:36:53;;;;;;;3.00;2.70;;;;;;;4.13;100.00;100432.75;6182668;23;20447;-77
2022/11/29 11:39:21;;;;;;;1.50;1.42;;;;;;;4.10;100.00;100430.78;6156609;23;20004;-77
2022/11/29 11:44:37;;;;;;;;;;;;;;;3.92;100.00;100440.88;6183630;23;20041;-76
2022/11/29 11:47:04;;;;;;;1.70;1.60;;;;;;;3.98;100.00;100444.81;6157605;23;19956;-76
2022/11/29 11:49:36;;;;;;;2.95;1.60;;;;;;;3.82;100.00;100441.56;6156676;23;20094;-76
2022/11/29 11:52:04;;;;;;;1.60;1.48;;;;;;;3.88;100.00;100438.13;6183595;23;20013;-76
2022/11/29 11:54:30;;;;;;;1.65;1.50;;;;;;;3.90;100.00;100437.72;6156237;23;20009;-76
2022/11/29 11:56:55;;;;;;;1.75;1.20;;;;;;;3.91;100.00;100442.84;6183727;23;20063;-77
2022/11/29 11:59:23;;;;;;;1.58;1.48;;;;;;;3.89;100.00;100439.66;6158114;23;20017;-76
2022/11/29 12:01:49;;;;;;;4.22;3.55;;;;;;;3.88;100.00;100437.31;6155158;23;20009;-76
2022/11/29 12:04:17;;;;;;;0.95;0.85;;;;;;;3.95;100.00;100451.88;6156760;23;20013;-77
2022/11/29 12:06:46;;;;;;;3.45;2.45;;;;;;;3.95;100.00;100446.38;6156921;23;20637;-77
2022/11/29 12:09:18;;;;;;;3.22;0.82;;;;;;;4.03;100.00;100442.50;6181370;23;20024;-77
2022/11/29 12:12:13;;;;;;;0.90;0.90;;;;;;;4.03;100.00;100442.50;6182810;23;20044;-83
2022/11/29 12:14:48;;;;;;;1.48;1.38;;;;;;;4.06;100.00;100446.44;6155441;23;20016;-77
2022/11/29 12:17:18;;;;;;;2.50;2.30;;;;;;;4.08;100.00;100444.91;6182799;23;20009;-77
2022/11/29 12:20:04;;;;;;;0.93;0.93;;;;;;;4.09;100.00;100445.66;6156797;23;20017;-77
2022/11/29 12:22:36;;;;;;;1.63;1.52;;;;;;;4.06;100.00;100440.94;6183039;23;20607;-77
2022/11/29 12:25:05;;;;;;;0.20;0.20;;;;;;;4.15;100.00;100438.66;6156368;23;20012;-77
2022/11/29 12:27:31;;;;;;;3.83;3.53;;;;;;;4.06;100.00;100436.25;6182760;23;20001;-77
2022/11/29 12:29:56;;;;;;;1.13;0.75;;;;;;;4.02;100.00;100432.69;6182288;23;20371;-79
2022/11/29 12:32:34;;;;;;;2.53;2.38;;;;;;;4.09;100.00;100429.19;6156076;23;20399;-77
2022/11/29 12:35:09;;;;;;;2.08;1.55;;;;;;;4.07;100.00;100431.56;6182673;23;20021;-77
2022/11/29 12:37:38;;;;;;;4.25;3.88;;;;;;;4.19;100.00;100428.47;6182695;23;20347;-77
2022/11/29 12:40:11;;;;;;;2.60;2.40;;;;;;;4.19;100.00;100429.28;6181933;23;20011;-77
2022/11/29 12:42:54;;;;;;;2.60;2.40;;;;;;;4.16;100.00;100423.75;6156934;23;20009;-77
2022/11/29 12:45:35;;;;;;;2.03;1.37;;;;;;;4.04;100.00;100440.56;6156104;23;20075;-77
2022/11/29 12:48:01;;;;;;;9.02;3.10;;;;;;;4.07;100.00;100426.84;6184436;23;20244;-77
2022/11/29 12:50:51;;;;;;;2.60;2.10;;;;;;;4.04;100.00;100415.84;6184060;23;20016;-77
2022/11/29 12:53:57;;;;;;;2.47;2.30;;;;;;;3.89;100.00;100427.91;6185195;23;20091;-82
2022/11/29 12:56:26;;;;;;;5.82;2.00;;;;;;;3.89;100.00;100430.63;6158356;23;20092;-82
2022/11/29 12:58:59;;;;;;;2.03;1.92;;;;;;;3.84;100.00;100423.59;6158630;23;20080;-82
2022/11/29 13:01:50;;;;;;;6.10;3.45;;;;;;;3.81;100.00;100420.78;6182678;23;20017;-82